sensor_id;sensor_type;location;lat;lon;timestamp;temperature;humidity
17307;DHT22;8771;48.048;7.682;2022-08-20T00:03:25;20.00;65.20
17307;DHT22;8771;48.048;7.682;2022-08-20T00:08:29;20.00;65.40
17307;DHT22;8771;48.048;7.682;2022-08-20T00:13:35;19.90;65.30
17307;DHT22;8771;48.048;7.682;2022-08-20T00:18:40;19.90;65.40
17307;DHT22;8771;48.048;7.682;2022-08-20T00:23:44;19.80;65.40
17307;DHT22;8771;48.048;7.682;2022-08-20T00:28:48;19.80;65.40
17307;DHT22;8771;48.048;7.682;2022-08-20T00:33:51;19.80;65.50
17307;DHT22;8771;48.048;7.682;2022-08-20T00:38:53;19.70;65.50
17307;DHT22;8771;48.048;7.682;2022-08-20T00:44:07;19.70;65.50
17307;DHT22;8771;48.048;7.682;2022-08-20T00:49:14;19.70;65.50
17307;DHT22;8771;48.048;7.682;2022-08-20T00:54:19;19.70;65.50
17307;DHT22;8771;48.048;7.682;2022-08-20T00:59:26;19.80;65.50
17307;DHT22;8771;48.048;7.682;2022-08-20T01:04:30;19.80;65.50
17307;DHT22;8771;48.048;7.682;2022-08-20T01:09:33;19.80;65.40
17307;DHT22;8771;48.048;7.682;2022-08-20T01:14:37;19.80;65.30
17307;DHT22;8771;48.048;7.682;2022-08-20T01:19:50;19.80;65.20
17307;DHT22;8771;48.048;7.682;2022-08-20T01:25:02;19.80;65.20
17307;DHT22;8771;48.048;7.682;2022-08-20T01:30:08;19.90;65.20
17307;DHT22;8771;48.048;7.682;2022-08-20T01:35:10;19.90;65.10
17307;DHT22;8771;48.048;7.682;2022-08-20T01:40:15;20.00;65.10
17307;DHT22;8771;48.048;7.682;2022-08-20T01:45:19;20.00;65.10
17307;DHT22;8771;48.048;7.682;2022-08-20T01:50:25;20.00;65.10
17307;DHT22;8771;48.048;7.682;2022-08-20T01:55:28;20.00;65.00
17307;DHT22;8771;48.048;7.682;2022-08-20T02:00:31;20.00;65.00
17307;DHT22;8771;48.048;7.682;2022-08-20T02:05:35;20.10;65.10
17307;DHT22;8771;48.048;7.682;2022-08-20T02:10:37;20.10;65.00
17307;DHT22;8771;48.048;7.682;2022-08-20T02:15:41;20.10;65.00
17307;DHT22;8771;48.048;7.682;2022-08-20T02:20:43;20.10;64.90
17307;DHT22;8771;48.048;7.682;2022-08-20T02:25:46;20.20;65.00
17307;DHT22;8771;48.048;7.682;2022-08-20T02:30:52;20.20;64.90
17307;DHT22;8771;48.048;7.682;2022-08-20T02:35:55;20.20;65.00
17307;DHT22;8771;48.048;7.682;2022-08-20T02:40:57;20.20;65.00
17307;DHT22;8771;48.048;7.682;2022-08-20T02:46:01;20.20;65.00
17307;DHT22;8771;48.048;7.682;2022-08-20T02:51:05;20.20;65.00
17307;DHT22;8771;48.048;7.682;2022-08-20T02:56:08;20.20;65.00
17307;DHT22;8771;48.048;7.682;2022-08-20T03:01:14;20.20;65.10
17307;DHT22;8771;48.048;7.682;2022-08-20T03:06:17;20.20;65.10
17307;DHT22;8771;48.048;7.682;2022-08-20T03:11:21;20.30;65.10
17307;DHT22;8771;48.048;7.682;2022-08-20T03:16:26;20.30;65.20
17307;DHT22;8771;48.048;7.682;2022-08-20T03:21:28;20.30;65.10
17307;DHT22;8771;48.048;7.682;2022-08-20T03:26:30;20.30;65.10
17307;DHT22;8771;48.048;7.682;2022-08-20T03:31:33;20.30;65.10
17307;DHT22;8771;48.048;7.682;2022-08-20T03:36:35;20.30;65.20
17307;DHT22;8771;48.048;7.682;2022-08-20T03:41:37;20.30;65.40
17307;DHT22;8771;48.048;7.682;2022-08-20T03:46:41;20.20;65.40
17307;DHT22;8771;48.048;7.682;2022-08-20T03:51:43;20.20;65.50
17307;DHT22;8771;48.048;7.682;2022-08-20T03:56:45;20.20;65.50
17307;DHT22;8771;48.048;7.682;2022-08-20T04:01:48;20.20;65.40
17307;DHT22;8771;48.048;7.682;2022-08-20T04:06:50;20.20;65.40
17307;DHT22;8771;48.048;7.682;2022-08-20T04:11:52;20.30;65.50
17307;DHT22;8771;48.048;7.682;2022-08-20T04:17:04;20.30;65.60
17307;DHT22;8771;48.048;7.682;2022-08-20T04:22:07;20.30;65.50
17307;DHT22;8771;48.048;7.682;2022-08-20T04:27:10;20.30;65.50
17307;DHT22;8771;48.048;7.682;2022-08-20T04:32:15;20.30;65.50
17307;DHT22;8771;48.048;7.682;2022-08-20T04:37:19;20.30;65.40
17307;DHT22;8771;48.048;7.682;2022-08-20T04:42:22;20.30;65.40
17307;DHT22;8771;48.048;7.682;2022-08-20T04:47:25;20.30;65.40
17307;DHT22;8771;48.048;7.682;2022-08-20T04:52:27;20.30;65.40
17307;DHT22;8771;48.048;7.682;2022-08-20T04:57:33;20.40;65.40
17307;DHT22;8771;48.048;7.682;2022-08-20T05:02:37;20.40;65.40
17307;DHT22;8771;48.048;7.682;2022-08-20T05:07:41;20.40;65.30
17307;DHT22;8771;48.048;7.682;2022-08-20T05:12:45;20.50;65.30
17307;DHT22;8771;48.048;7.682;2022-08-20T05:17:54;20.50;65.30
17307;DHT22;8771;48.048;7.682;2022-08-20T05:22:56;20.50;65.40
17307;DHT22;8771;48.048;7.682;2022-08-20T05:27:59;20.50;65.30
17307;DHT22;8771;48.048;7.682;2022-08-20T05:33:05;20.60;66.20
17307;DHT22;8771;48.048;7.682;2022-08-20T05:38:09;20.60;65.40
17307;DHT22;8771;48.048;7.682;2022-08-20T05:43:12;20.60;65.40
17307;DHT22;8771;48.048;7.682;2022-08-20T05:48:18;20.60;65.40
17307;DHT22;8771;48.048;7.682;2022-08-20T05:53:22;20.60;65.40
17307;DHT22;8771;48.048;7.682;2022-08-20T05:58:26;20.60;65.40
17307;DHT22;8771;48.048;7.682;2022-08-20T06:03:30;20.60;65.50
17307;DHT22;8771;48.048;7.682;2022-08-20T06:08:49;20.60;65.60
17307;DHT22;8771;48.048;7.682;2022-08-20T06:13:52;20.60;65.60
17307;DHT22;8771;48.048;7.682;2022-08-20T06:18:55;20.60;65.60
17307;DHT22;8771;48.048;7.682;2022-08-20T06:23:57;20.60;65.70
17307;DHT22;8771;48.048;7.682;2022-08-20T06:28:59;20.50;65.80
17307;DHT22;8771;48.048;7.682;2022-08-20T06:34:03;20.50;65.90
17307;DHT22;8771;48.048;7.682;2022-08-20T06:39:05;20.40;66.10
17307;DHT22;8771;48.048;7.682;2022-08-20T06:44:08;20.40;66.20
17307;DHT22;8771;48.048;7.682;2022-08-20T06:49:12;20.30;66.20
17307;DHT22;8771;48.048;7.682;2022-08-20T06:54:14;20.30;66.20
17307;DHT22;8771;48.048;7.682;2022-08-20T06:59:16;20.40;66.10
17307;DHT22;8771;48.048;7.682;2022-08-20T07:04:20;20.50;66.00
17307;DHT22;8771;48.048;7.682;2022-08-20T07:09:23;20.60;65.90
17307;DHT22;8771;48.048;7.682;2022-08-20T07:14:26;20.70;65.70
17307;DHT22;8771;48.048;7.682;2022-08-20T07:19:29;20.80;65.40
17307;DHT22;8771;48.048;7.682;2022-08-20T07:24:31;21.00;65.20
17307;DHT22;8771;48.048;7.682;2022-08-20T07:29:33;21.30;65.10
17307;DHT22;8771;48.048;7.682;2022-08-20T07:34:50;21.50;64.70
17307;DHT22;8771;48.048;7.682;2022-08-20T07:39:52;21.80;64.30
17307;DHT22;8771;48.048;7.682;2022-08-20T07:44:54;22.00;64.00
17307;DHT22;8771;48.048;7.682;2022-08-20T07:49:57;22.20;63.90
17307;DHT22;8771;48.048;7.682;2022-08-20T07:55:00;22.40;63.80
17307;DHT22;8771;48.048;7.682;2022-08-20T08:00:03;22.50;63.60
17307;DHT22;8771;48.048;7.682;2022-08-20T08:05:08;22.60;63.60
17307;DHT22;8771;48.048;7.682;2022-08-20T08:10:19;22.60;63.70
17307;DHT22;8771;48.048;7.682;2022-08-20T08:15:25;22.60;64.00
17307;DHT22;8771;48.048;7.682;2022-08-20T08:20:29;22.50;64.20
17307;DHT22;8771;48.048;7.682;2022-08-20T08:25:32;22.40;64.50
17307;DHT22;8771;48.048;7.682;2022-08-20T08:30:34;22.30;64.60
17307;DHT22;8771;48.048;7.682;2022-08-20T08:35:38;22.30;64.70
17307;DHT22;8771;48.048;7.682;2022-08-20T08:40:40;22.40;64.80
17307;DHT22;8771;48.048;7.682;2022-08-20T08:45:44;22.40;64.70
17307;DHT22;8771;48.048;7.682;2022-08-20T08:50:50;22.40;64.70
17307;DHT22;8771;48.048;7.682;2022-08-20T08:55:53;22.50;64.70
17307;DHT22;8771;48.048;7.682;2022-08-20T09:00:56;22.50;64.70
17307;DHT22;8771;48.048;7.682;2022-08-20T09:06:00;22.60;64.50
17307;DHT22;8771;48.048;7.682;2022-08-20T09:11:04;22.70;64.40
17307;DHT22;8771;48.048;7.682;2022-08-20T09:16:07;22.90;64.10
17307;DHT22;8771;48.048;7.682;2022-08-20T09:21:11;23.20;63.90
17307;DHT22;8771;48.048;7.682;2022-08-20T09:26:14;23.40;63.50
17307;DHT22;8771;48.048;7.682;2022-08-20T09:31:16;23.60;63.30
17307;DHT22;8771;48.048;7.682;2022-08-20T09:36:19;23.90;63.10
17307;DHT22;8771;48.048;7.682;2022-08-20T09:41:21;24.10;62.90
17307;DHT22;8771;48.048;7.682;2022-08-20T09:46:23;24.40;62.50
17307;DHT22;8771;48.048;7.682;2022-08-20T09:51:27;24.80;62.00
17307;DHT22;8771;48.048;7.682;2022-08-20T09:56:32;25.10;61.50
17307;DHT22;8771;48.048;7.682;2022-08-20T10:01:34;25.30;61.20
17307;DHT22;8771;48.048;7.682;2022-08-20T10:06:40;25.30;61.50
17307;DHT22;8771;48.048;7.682;2022-08-20T10:11:42;25.20;61.80
17307;DHT22;8771;48.048;7.682;2022-08-20T10:16:44;25.30;62.60
17307;DHT22;8771;48.048;7.682;2022-08-20T10:21:49;25.40;61.90
17307;DHT22;8771;48.048;7.682;2022-08-20T10:26:54;25.60;61.60
17307;DHT22;8771;48.048;7.682;2022-08-20T10:32:02;25.80;61.60
17307;DHT22;8771;48.048;7.682;2022-08-20T10:37:13;26.00;61.30
17307;DHT22;8771;48.048;7.682;2022-08-20T10:42:15;26.10;61.20
17307;DHT22;8771;48.048;7.682;2022-08-20T10:47:21;26.00;61.30
17307;DHT22;8771;48.048;7.682;2022-08-20T10:52:25;25.90;61.60
17307;DHT22;8771;48.048;7.682;2022-08-20T10:57:29;26.10;61.50
17307;DHT22;8771;48.048;7.682;2022-08-20T11:02:31;26.30;61.20
17307;DHT22;8771;48.048;7.682;2022-08-20T11:07:37;26.50;60.90
17307;DHT22;8771;48.048;7.682;2022-08-20T11:12:39;26.80;60.50
17307;DHT22;8771;48.048;7.682;2022-08-20T11:17:43;27.10;60.30
17307;DHT22;8771;48.048;7.682;2022-08-20T11:22:47;27.00;60.60
17307;DHT22;8771;48.048;7.682;2022-08-20T11:27:49;26.80;60.80
17307;DHT22;8771;48.048;7.682;2022-08-20T11:32:52;26.80;61.10
17307;DHT22;8771;48.048;7.682;2022-08-20T11:37:56;27.00;60.90
17307;DHT22;8771;48.048;7.682;2022-08-20T11:42:58;27.40;60.30
17307;DHT22;8771;48.048;7.682;2022-08-20T11:48:00;27.90;59.80
17307;DHT22;8771;48.048;7.682;2022-08-20T11:53:04;28.20;59.50
17307;DHT22;8771;48.048;7.682;2022-08-20T11:58:06;28.20;59.70
17307;DHT22;8771;48.048;7.682;2022-08-20T12:03:08;28.20;59.80
17307;DHT22;8771;48.048;7.682;2022-08-20T12:08:13;28.20;59.90
17307;DHT22;8771;48.048;7.682;2022-08-20T12:13:15;28.20;59.90
17307;DHT22;8771;48.048;7.682;2022-08-20T12:18:17;28.20;59.80
17307;DHT22;8771;48.048;7.682;2022-08-20T12:23:21;28.10;60.10
17307;DHT22;8771;48.048;7.682;2022-08-20T12:35:59;27.50;58.90
17307;DHT22;8771;48.048;7.682;2022-08-20T12:41:01;27.20;60.20
17307;DHT22;8771;48.048;7.682;2022-08-20T12:46:03;27.00;61.10
17307;DHT22;8771;48.048;7.682;2022-08-20T12:51:07;27.10;61.40
17307;DHT22;8771;48.048;7.682;2022-08-20T12:56:09;27.20;61.10
17307;DHT22;8771;48.048;7.682;2022-08-20T13:01:11;27.30;61.00
17307;DHT22;8771;48.048;7.682;2022-08-20T13:06:16;27.40;60.80
17307;DHT22;8771;48.048;7.682;2022-08-20T13:11:19;27.40;60.90
17307;DHT22;8771;48.048;7.682;2022-08-20T13:16:21;27.40;61.00
17307;DHT22;8771;48.048;7.682;2022-08-20T13:21:24;27.30;61.20
17307;DHT22;8771;48.048;7.682;2022-08-20T13:26:27;27.20;61.40
17307;DHT22;8771;48.048;7.682;2022-08-20T13:31:29;26.90;61.50
17307;DHT22;8771;48.048;7.682;2022-08-20T13:36:32;26.70;61.90
17307;DHT22;8771;48.048;7.682;2022-08-20T13:41:35;26.30;62.20
17307;DHT22;8771;48.048;7.682;2022-08-20T13:46:37;26.10;62.50
17307;DHT22;8771;48.048;7.682;2022-08-20T13:51:40;26.00;62.60
17307;DHT22;8771;48.048;7.682;2022-08-20T13:56:43;25.80;63.40
17307;DHT22;8771;48.048;7.682;2022-08-20T14:01:45;25.60;62.70
17307;DHT22;8771;48.048;7.682;2022-08-20T14:06:48;25.40;63.00
17307;DHT22;8771;48.048;7.682;2022-08-20T14:11:50;25.30;63.00
17307;DHT22;8771;48.048;7.682;2022-08-20T14:16:52;25.30;62.70
17307;DHT22;8771;48.048;7.682;2022-08-20T14:21:56;25.60;62.30
17307;DHT22;8771;48.048;7.682;2022-08-20T14:26:58;26.00;61.70
17307;DHT22;8771;48.048;7.682;2022-08-20T14:32:00;26.20;61.20
17307;DHT22;8771;48.048;7.682;2022-08-20T14:37:11;26.20;61.00
17307;DHT22;8771;48.048;7.682;2022-08-20T14:42:14;26.30;61.00
17307;DHT22;8771;48.048;7.682;2022-08-20T14:47:21;26.60;60.60
17307;DHT22;8771;48.048;7.682;2022-08-20T14:52:25;26.60;60.50
17307;DHT22;8771;48.048;7.682;2022-08-20T14:57:27;26.70;60.70
17307;DHT22;8771;48.048;7.682;2022-08-20T15:02:29;26.80;60.50
17307;DHT22;8771;48.048;7.682;2022-08-20T15:07:35;26.90;60.30
17307;DHT22;8771;48.048;7.682;2022-08-20T15:12:37;27.00;60.30
17307;DHT22;8771;48.048;7.682;2022-08-20T15:17:42;27.00;60.40
17307;DHT22;8771;48.048;7.682;2022-08-20T15:22:47;27.00;60.40
17307;DHT22;8771;48.048;7.682;2022-08-20T15:27:49;27.00;60.60
17307;DHT22;8771;48.048;7.682;2022-08-20T15:32:52;27.00;60.50
17307;DHT22;8771;48.048;7.682;2022-08-20T15:37:57;27.00;60.50
17307;DHT22;8771;48.048;7.682;2022-08-20T15:43:01;27.00;60.50
17307;DHT22;8771;48.048;7.682;2022-08-20T15:48:10;27.00;60.40
17307;DHT22;8771;48.048;7.682;2022-08-20T15:53:19;27.10;60.20
17307;DHT22;8771;48.048;7.682;2022-08-20T15:58:30;27.10;60.20
17307;DHT22;8771;48.048;7.682;2022-08-20T16:04:10;27.10;60.20
17307;DHT22;8771;48.048;7.682;2022-08-20T16:15:21;26.90;60.70
17307;DHT22;8771;48.048;7.682;2022-08-20T16:20:28;26.90;60.60
17307;DHT22;8771;48.048;7.682;2022-08-20T16:25:47;26.80;60.50
17307;DHT22;8771;48.048;7.682;2022-08-20T16:30:58;26.80;60.60
17307;DHT22;8771;48.048;7.682;2022-08-20T16:36:08;26.80;60.70
17307;DHT22;8771;48.048;7.682;2022-08-20T16:41:13;26.80;60.50
17307;DHT22;8771;48.048;7.682;2022-08-20T16:46:20;26.90;60.30
17307;DHT22;8771;48.048;7.682;2022-08-20T16:51:30;26.90;60.10
17307;DHT22;8771;48.048;7.682;2022-08-20T16:56:36;27.00;60.00
17307;DHT22;8771;48.048;7.682;2022-08-20T17:01:39;27.00;59.90
17307;DHT22;8771;48.048;7.682;2022-08-20T17:06:45;26.90;59.90
17307;DHT22;8771;48.048;7.682;2022-08-20T17:11:47;26.80;60.00
17307;DHT22;8771;48.048;7.682;2022-08-20T17:16:51;26.70;60.00
17307;DHT22;8771;48.048;7.682;2022-08-20T17:21:55;26.60;60.00
17307;DHT22;8771;48.048;7.682;2022-08-20T17:27:10;26.50;60.10
17307;DHT22;8771;48.048;7.682;2022-08-20T17:32:22;26.40;60.30
17307;DHT22;8771;48.048;7.682;2022-08-20T17:37:28;26.20;60.40
17307;DHT22;8771;48.048;7.682;2022-08-20T17:42:31;26.10;60.50
17307;DHT22;8771;48.048;7.682;2022-08-20T17:47:37;26.00;60.60
17307;DHT22;8771;48.048;7.682;2022-08-20T17:52:45;25.80;60.60
17307;DHT22;8771;48.048;7.682;2022-08-20T17:57:56;25.70;60.60
17307;DHT22;8771;48.048;7.682;2022-08-20T18:03:10;25.60;60.60
17307;DHT22;8771;48.048;7.682;2022-08-20T18:08:22;25.50;60.60
17307;DHT22;8771;48.048;7.682;2022-08-20T18:13:40;25.40;60.60
17307;DHT22;8771;48.048;7.682;2022-08-20T18:18:52;25.30;60.80
17307;DHT22;8771;48.048;7.682;2022-08-20T18:23:59;25.10;60.70
17307;DHT22;8771;48.048;7.682;2022-08-20T18:29:09;25.00;60.90
17307;DHT22;8771;48.048;7.682;2022-08-20T18:34:17;24.80;60.90
17307;DHT22;8771;48.048;7.682;2022-08-20T18:39:24;24.70;60.90
17307;DHT22;8771;48.048;7.682;2022-08-20T18:44:29;24.60;60.90
17307;DHT22;8771;48.048;7.682;2022-08-20T18:49:38;24.40;61.00
17307;DHT22;8771;48.048;7.682;2022-08-20T18:54:47;24.20;61.10
17307;DHT22;8771;48.048;7.682;2022-08-20T18:59:53;24.10;61.20
17307;DHT22;8771;48.048;7.682;2022-08-20T19:05:01;24.00;61.20
17307;DHT22;8771;48.048;7.682;2022-08-20T19:10:33;23.90;61.30
17307;DHT22;8771;48.048;7.682;2022-08-20T19:15:41;23.70;61.40
17307;DHT22;8771;48.048;7.682;2022-08-20T19:20:53;23.50;61.70
17307;DHT22;8771;48.048;7.682;2022-08-20T19:25:59;23.30;61.90
17307;DHT22;8771;48.048;7.682;2022-08-20T19:31:09;23.20;61.90
17307;DHT22;8771;48.048;7.682;2022-08-20T19:36:16;23.10;62.10
17307;DHT22;8771;48.048;7.682;2022-08-20T19:41:21;22.90;62.40
17307;DHT22;8771;48.048;7.682;2022-08-20T19:46:28;22.60;62.50
17307;DHT22;8771;48.048;7.682;2022-08-20T19:51:41;22.50;62.80
17307;DHT22;8771;48.048;7.682;2022-08-20T19:56:44;22.30;62.90
17307;DHT22;8771;48.048;7.682;2022-08-20T20:01:54;22.20;62.90
17307;DHT22;8771;48.048;7.682;2022-08-20T20:07:01;22.00;62.90
17307;DHT22;8771;48.048;7.682;2022-08-20T20:12:10;21.80;63.00
17307;DHT22;8771;48.048;7.682;2022-08-20T20:17:22;21.60;63.40
17307;DHT22;8771;48.048;7.682;2022-08-20T20:22:29;21.40;63.70
17307;DHT22;8771;48.048;7.682;2022-08-20T20:27:32;21.20;63.90
17307;DHT22;8771;48.048;7.682;2022-08-20T20:32:39;21.00;64.00
17307;DHT22;8771;48.048;7.682;2022-08-20T20:37:43;20.90;64.00
17307;DHT22;8771;48.048;7.682;2022-08-20T20:42:56;20.90;63.90
17307;DHT22;8771;48.048;7.682;2022-08-20T20:47:58;20.80;63.80
17307;DHT22;8771;48.048;7.682;2022-08-20T20:53:03;20.80;63.90
17307;DHT22;8771;48.048;7.682;2022-08-20T20:58:05;20.60;64.10
17307;DHT22;8771;48.048;7.682;2022-08-20T21:03:07;20.50;64.20
17307;DHT22;8771;48.048;7.682;2022-08-20T21:08:12;20.30;64.30
17307;DHT22;8771;48.048;7.682;2022-08-20T21:13:14;20.20;64.50
17307;DHT22;8771;48.048;7.682;2022-08-20T21:18:16;20.20;64.40
17307;DHT22;8771;48.048;7.682;2022-08-20T21:23:20;20.10;64.30
17307;DHT22;8771;48.048;7.682;2022-08-20T21:28:22;20.10;64.30
17307;DHT22;8771;48.048;7.682;2022-08-20T21:33:24;20.00;64.30
17307;DHT22;8771;48.048;7.682;2022-08-20T21:38:27;20.00;64.30
17307;DHT22;8771;48.048;7.682;2022-08-20T21:43:30;19.90;64.30
17307;DHT22;8771;48.048;7.682;2022-08-20T21:48:32;19.70;64.50
17307;DHT22;8771;48.048;7.682;2022-08-20T21:53:35;19.70;64.60
17307;DHT22;8771;48.048;7.682;2022-08-20T21:58:38;19.70;64.50
17307;DHT22;8771;48.048;7.682;2022-08-20T22:03:41;19.60;64.50
17307;DHT22;8771;48.048;7.682;2022-08-20T22:08:44;19.60;64.60
17307;DHT22;8771;48.048;7.682;2022-08-20T22:13:46;19.50;64.60
17307;DHT22;8771;48.048;7.682;2022-08-20T22:18:49;19.40;64.60
17307;DHT22;8771;48.048;7.682;2022-08-20T22:23:54;19.30;64.70
17307;DHT22;8771;48.048;7.682;2022-08-20T22:28:58;19.30;64.80
17307;DHT22;8771;48.048;7.682;2022-08-20T22:34:00;19.20;64.80
17307;DHT22;8771;48.048;7.682;2022-08-20T22:39:04;19.10;64.80
17307;DHT22;8771;48.048;7.682;2022-08-20T22:44:07;19.00;65.00
17307;DHT22;8771;48.048;7.682;2022-08-20T22:49:12;18.90;65.20
17307;DHT22;8771;48.048;7.682;2022-08-20T22:54:19;18.80;65.30
17307;DHT22;8771;48.048;7.682;2022-08-20T22:59:22;18.80;65.30
17307;DHT22;8771;48.048;7.682;2022-08-20T23:04:26;18.70;65.30
17307;DHT22;8771;48.048;7.682;2022-08-20T23:09:30;18.70;65.30
17307;DHT22;8771;48.048;7.682;2022-08-20T23:14:32;18.70;65.20
17307;DHT22;8771;48.048;7.682;2022-08-20T23:19:36;18.70;65.20
17307;DHT22;8771;48.048;7.682;2022-08-20T23:24:40;18.70;65.30
17307;DHT22;8771;48.048;7.682;2022-08-20T23:29:42;18.60;65.30
17307;DHT22;8771;48.048;7.682;2022-08-20T23:34:44;18.50;65.30
17307;DHT22;8771;48.048;7.682;2022-08-20T23:39:48;18.50;65.40
17307;DHT22;8771;48.048;7.682;2022-08-20T23:44:50;18.50;65.60
17307;DHT22;8771;48.048;7.682;2022-08-20T23:49:52;18.50;65.50
17307;DHT22;8771;48.048;7.682;2022-08-20T23:54:55;18.50;65.40
17307;DHT22;8771;48.048;7.682;2022-08-20T23:59:57;18.40;65.40
